Time;durP1;ratioP1;P1;durP2;ratioP2;P2;SDS_P1;SDS_P2;PMS_P1;PMS_P2;Temp;Humidity;BMP_temperature;BMP_pressure;BME280_temperature;BME280_humidity;BME280_pressure;Samples;Min_cycle;Max_cycle;Signal;HPM_P1;HPM_P2
2022/08/09 00:00:00;;;;;;;9.85;3.70;;;;;;;23.09;57.54;100213.50;5033180;28;20036;-69
2022/08/09 00:02:25;;;;;;;10.68;3.90;;;;;;;23.68;57.83;100318.66;5033439;28;21390;-69
2022/08/09 00:04:51;;;;;;;13.43;4.10;;;;;;;23.79;57.54;100329.00;5033156;28;20095;-69
2022/08/09 00:07:16;;;;;;;10.48;4.10;;;;;;;23.81;57.74;100326.34;4998033;28;20084;-69
2022/08/09 00:09:42;;;;;;;12.23;4.20;;;;;;;23.35;58.25;100271.00;5033027;28;20029;-69
2022/08/09 00:12:09;;;;;;;16.27;4.43;;;;;;;23.26;59.71;100322.09;5033077;28;20044;-69
2022/08/09 00:14:35;;;;;;;11.48;3.88;;;;;;;23.19;60.04;100309.03;5033001;28;20033;-69
2022/08/09 00:17:01;;;;;;;7.78;3.70;;;;;;;23.22;59.89;100315.13;5032786;28;20041;-69
2022/08/09 00:19:27;;;;;;;10.75;4.05;;;;;;;22.68;60.16;100238.81;5033043;28;20072;-69
2022/08/09 00:21:53;;;;;;;16.23;4.22;;;;;;;23.21;59.18;100312.53;5033008;28;20081;-69
2022/08/09 00:24:18;;;;;;;13.10;4.07;;;;;;;23.24;57.14;100312.47;5015393;28;20076;-69
2022/08/09 00:26:44;;;;;;;12.85;3.88;;;;;;;22.90;55.90;100297.22;5032651;28;20049;-69
2022/08/09 00:29:10;;;;;;;8.95;3.80;;;;;;;22.73;54.89;100315.91;5032579;28;20261;-69
2022/08/09 00:31:35;;;;;;;10.95;3.65;;;;;;;22.22;56.84;100307.00;5032634;28;20590;-69
2022/08/09 00:34:01;;;;;;;13.55;3.88;;;;;;;21.92;57.40;100313.50;5032825;28;20088;-69
2022/08/09 00:36:26;;;;;;;12.95;4.03;;;;;;;21.73;57.64;100318.13;5032783;28;20041;-69
2022/08/09 00:38:52;;;;;;;14.50;3.92;;;;;;;21.54;58.76;100323.56;5032597;28;20036;-69
2022/08/09 00:41:21;;;;;;;14.32;4.47;;;;;;;21.36;60.36;100308.88;5032540;28;20506;-69
2022/08/09 00:43:47;;;;;;;12.13;4.40;;;;;;;21.25;60.04;100293.22;5032441;28;20040;-69
2022/08/09 00:46:13;;;;;;;15.43;3.97;;;;;;;20.85;59.65;100264.72;5032332;28;20041;-69
2022/08/09 00:48:38;;;;;;;8.77;4.45;;;;;;;21.28;59.34;100313.31;5032360;28;20038;-69
2022/08/09 00:51:07;;;;;;;11.00;3.85;;;;;;;21.19;60.40;100308.16;5032739;28;20037;-69
2022/08/09 00:53:35;;;;;;;12.60;4.63;;;;;;;21.19;60.28;100313.41;5032103;28;20129;-69
2022/08/09 00:56:01;;;;;;;9.45;4.32;;;;;;;21.42;59.39;100315.78;5032355;28;20040;-69
2022/08/09 00:58:30;;;;;;;8.02;3.92;;;;;;;21.66;59.32;100312.09;5032295;28;20029;-69
2022/08/09 01:00:56;;;;;;;12.27;4.13;;;;;;;21.48;58.99;100314.00;5032357;28;20033;-69
2022/08/09 01:03:27;;;;;;;8.82;3.50;;;;;;;21.58;59.53;100313.91;5031960;28;20041;-69
2022/08/09 01:06:11;;;;;;;8.40;4.00;;;;;;;21.57;59.75;100320.06;5032222;28;20098;-69
2022/08/09 01:09:22;;;;;;;11.35;4.35;;;;;;;21.73;59.12;100311.13;5014074;28;20041;-69
2022/08/09 01:12:02;;;;;;;14.05;3.90;;;;;;;21.78;58.38;100304.06;4970831;28;20035;-69
2022/08/09 01:14:30;;;;;;;10.40;4.05;;;;;;;21.79;58.38;100305.81;4970521;28;20038;-70
2022/08/09 01:17:36;;;;;;;7.80;3.63;;;;;;;21.83;58.88;100306.59;4970700;28;20045;-69
2022/08/09 01:20:31;;;;;;;11.07;4.25;;;;;;;22.00;58.05;100303.78;4970584;28;20035;-69
2022/08/09 01:23:02;;;;;;;7.53;3.83;;;;;;;22.14;58.66;100311.47;4913019;29;20051;-69
2022/08/09 01:25:42;;;;;;;10.45;4.20;;;;;;;22.19;58.47;100303.53;4913025;29;20115;-69
2022/08/09 01:28:09;;;;;;;9.85;4.15;;;;;;;22.01;59.13;100316.03;4912985;29;20228;-69
2022/08/09 01:30:36;;;;;;;10.23;4.30;;;;;;;21.89;58.61;100303.06;4913027;29;20137;-68
2022/08/09 01:33:05;;;;;;;9.52;4.28;;;;;;;21.80;57.97;100297.00;4913229;29;20044;-69
2022/08/09 01:35:56;;;;;;;7.68;3.60;;;;;;;21.47;59.19;100292.97;4912821;29;20040;-69
2022/08/09 01:38:26;;;;;;;7.72;3.55;;;;;;;20.91;59.78;100277.78;4912863;29;20052;-69
2022/08/09 01:41:03;;;;;;;6.95;3.50;;;;;;;20.95;60.70;100265.50;4912752;29;20115;-69
2022/08/09 01:43:31;;;;;;;7.70;3.83;;;;;;;20.95;61.11;100276.00;4912976;29;20550;-69
2022/08/09 01:45:56;;;;;;;6.15;4.00;;;;;;;21.04;61.23;100278.53;4912645;29;20499;-70
2022/08/09 01:48:23;;;;;;;7.40;3.63;;;;;;;21.11;59.89;100281.97;4927866;29;20122;-69
2022/08/09 01:50:51;;;;;;;5.47;3.75;;;;;;;21.12;59.77;100291.59;4950770;29;20190;-69
2022/08/09 01:53:19;;;;;;;10.18;3.88;;;;;;;20.71;60.23;100279.66;4950541;29;20067;-70
2022/08/09 01:55:46;;;;;;;8.05;3.90;;;;;;;20.33;63.52;100269.44;4950594;29;20506;-69
2022/08/09 01:58:13;;;;;;;17.13;4.72;;;;;;;20.56;68.65;100293.75;4950590;29;20521;-69
2022/08/09 02:00:42;;;;;;;20.75;4.88;;;;;;;20.56;69.11;100293.75;4998357;28;20531;-70
2022/08/09 02:03:09;;;;;;;18.97;5.73;;;;;;;20.34;70.52;100280.81;5011441;28;20042;-70
2022/08/09 02:05:36;;;;;;;16.63;5.13;;;;;;;20.33;69.87;100250.22;5011162;28;20124;-70
2022/08/09 02:08:06;;;;;;;13.43;4.72;;;;;;;20.75;69.44;100287.53;5011365;28;20038;-70
2022/08/09 02:10:38;;;;;;;15.57;4.50;;;;;;;20.94;68.97;100295.25;5011663;28;20045;-70
2022/08/09 02:13:07;;;;;;;11.93;4.22;;;;;;;20.81;69.92;100282.25;5011404;28;20120;-70
2022/08/09 02:15:36;;;;;;;11.48;4.60;;;;;;;20.65;71.03;100285.84;5010424;28;20045;-70
2022/08/09 02:18:03;;;;;;;11.73;4.77;;;;;;;20.53;74.04;100292.91;5011345;28;20157;-70
2022/08/09 02:20:31;;;;;;;11.13;4.20;;;;;;;20.72;73.72;100289.31;5011086;28;20265;-70
2022/08/09 02:23:15;;;;;;;9.95;4.80;;;;;;;20.92;74.06;100290.03;5011079;28;20030;-70
2022/08/09 02:25:42;;;;;;;7.78;4.72;;;;;;;21.07;73.62;100293.38;5010625;28;20073;-70
2022/08/09 02:28:17;;;;;;;8.80;4.38;;;;;;;21.26;72.10;100286.19;5010734;28;20042;-70
2022/08/09 02:30:48;;;;;;;10.52;4.45;;;;;;;21.09;71.77;100242.63;5010968;28;20034;-70
2022/08/09 02:33:17;;;;;;;12.25;5.07;;;;;;;21.48;69.87;100297.34;5011134;28;20076;-70
2022/08/09 02:35:45;;;;;;;10.73;4.60;;;;;;;21.05;67.16;100296.03;5010911;28;20111;-70
2022/08/09 02:38:12;;;;;;;16.88;4.70;;;;;;;21.12;64.67;100289.84;5010676;28;20511;-70
2022/08/09 02:40:40;;;;;;;17.67;4.70;;;;;;;21.21;63.94;100288.00;5010888;28;20050;-69
2022/08/09 02:43:08;;;;;;;15.15;4.95;;;;;;;20.75;63.81;100219.34;5009612;28;20037;-69
2022/08/09 02:45:40;;;;;;;10.77;4.55;;;;;;;21.14;62.38;100288.06;5010706;28;20044;-69
2022/08/09 02:48:09;;;;;;;11.00;4.30;;;;;;;21.25;62.00;100287.97;5009412;28;20525;-69
2022/08/09 02:50:47;;;;;;;12.40;4.22;;;;;;;21.16;62.05;100294.19;5010884;28;20052;-69
2022/08/09 02:53:25;;;;;;;9.35;4.50;;;;;;;21.06;61.57;100304.75;5017776;28;20058;-69
2022/08/09 02:55:53;;;;;;;10.80;4.40;;;;;;;21.09;60.80;100297.75;5030277;28;20042;-69
2022/08/09 02:58:21;;;;;;;12.43;5.10;;;;;;;20.86;61.01;100297.97;5030708;28;20562;-69
2022/08/09 03:00:48;;;;;;;15.82;4.93;;;;;;;20.80;59.75;100277.88;5030285;28;20041;-69
2022/08/09 03:03:16;;;;;;;14.60;4.75;;;;;;;20.68;59.58;100264.81;5030277;28;20511;-69
2022/08/09 03:05:43;;;;;;;13.38;4.97;;;;;;;20.86;59.88;100287.47;5030130;28;20041;-69
2022/08/09 03:08:11;;;;;;;11.43;4.65;;;;;;;20.82;61.11;100293.59;5030297;28;20118;-69
2022/08/09 03:10:37;;;;;;;14.60;4.78;;;;;;;20.78;61.01;100284.88;5030375;28;20034;-69
2022/08/09 03:13:04;;;;;;;16.13;4.75;;;;;;;20.73;62.10;100288.44;5030358;28;20033;-69
2022/08/09 03:15:30;;;;;;;15.75;5.10;;;;;;;20.77;61.80;100282.28;5029979;28;20030;-70
2022/08/09 03:17:57;;;;;;;14.68;4.90;;;;;;;20.93;62.07;100293.50;5030165;28;20037;-70
2022/08/09 03:20:24;;;;;;;12.95;5.07;;;;;;;20.79;62.42;100283.16;5030207;28;20411;-69
2022/08/09 03:22:50;;;;;;;14.98;4.80;;;;;;;20.40;64.36;100291.25;5030033;28;20117;-69
2022/08/09 03:25:15;;;;;;;15.82;4.82;;;;;;;19.72;65.94;100247.03;5029874;28;20041;-69
2022/08/09 03:27:42;;;;;;;10.55;4.78;;;;;;;19.87;66.00;100275.78;5033751;28;20033;-69
2022/08/09 03:30:10;;;;;;;9.70;4.60;;;;;;;20.17;65.08;100313.22;5033886;28;20038;-70
2022/08/09 03:32:36;;;;;;;11.18;5.00;;;;;;;20.22;63.97;100320.19;5034350;28;20080;-69
2022/08/09 03:35:03;;;;;;;16.02;4.95;;;;;;;20.31;63.30;100312.28;5034102;28;20507;-69
2022/08/09 03:37:29;;;;;;;15.73;5.28;;;;;;;20.39;63.88;100309.59;5033859;28;20049;-69
2022/08/09 03:39:54;;;;;;;9.85;4.63;;;;;;;20.05;64.69;100313.31;5033893;28;20045;-69
2022/08/09 03:42:20;;;;;;;11.10;4.30;;;;;;;20.02;64.01;100308.06;5031326;28;20134;-69
2022/08/09 03:44:45;;;;;;;9.70;4.18;;;;;;;20.05;63.52;100315.91;5033417;28;20041;-69
2022/08/09 03:47:10;;;;;;;11.82;4.60;;;;;;;20.13;62.71;100326.38;5033690;28;20065;-70
2022/08/09 03:49:37;;;;;;;11.27;5.63;;;;;;;20.21;61.56;100321.94;5033368;28;20504;-69
2022/08/09 03:52:06;;;;;;;8.27;4.43;;;;;;;20.32;61.46;100314.03;5029180;28;20045;-69
2022/08/09 03:54:34;;;;;;;10.90;4.70;;;;;;;20.41;61.80;100313.97;5023365;28;20046;-69
2022/08/09 03:57:02;;;;;;;9.23;4.25;;;;;;;20.37;61.52;100307.00;5023094;28;20037;-70
2022/08/09 03:59:28;;;;;;;10.90;4.43;;;;;;;20.42;61.33;100320.09;5030241;28;20033;-69
2022/08/09 04:01:57;;;;;;;9.38;4.60;;;;;;;20.34;62.04;100317.50;5020934;28;20041;-69
2022/08/09 04:04:24;;;;;;;13.40;4.38;;;;;;;20.31;61.66;100325.38;5022777;28;20029;-70
2022/08/09 04:06:49;;;;;;;8.90;4.38;;;;;;;20.12;61.75;100299.25;5023879;28;20033;-68
2022/08/09 04:09:15;;;;;;;6.78;4.45;;;;;;;20.28;61.93;100326.28;5021125;28;20088;-69
2022/08/09 04:12:04;;;;;;;10.38;4.50;;;;;;;20.23;62.21;100332.44;5013622;28;20077;-69
2022/08/09 04:14:29;;;;;;;7.82;5.07;;;;;;;20.16;61.73;100331.56;5021263;28;20044;-70
2022/08/09 04:16:56;;;;;;;15.43;4.63;;;;;;;20.09;62.04;100332.47;5032919;28;20037;-70
2022/08/09 04:19:22;;;;;;;10.85;5.65;;;;;;;20.04;62.51;100341.25;5033053;28;20148;-70
2022/08/09 04:21:47;;;;;;;9.93;4.57;;;;;;;19.95;63.02;100336.06;5033098;28;20049;-69
2022/08/09 04:24:13;;;;;;;11.75;5.07;;;;;;;20.09;63.37;100335.09;5015213;28;20030;-70
2022/08/09 04:26:38;;;;;;;8.60;5.05;;;;;;;20.13;63.91;100329.84;5032820;28;20037;-70
2022/08/09 04:29:04;;;;;;;9.13;4.70;;;;;;;20.31;63.64;100334.13;5032495;28;20042;-70
2022/08/09 04:31:29;;;;;;;15.27;4.68;;;;;;;20.38;63.73;100327.09;5032967;28;20048;-70
2022/08/09 04:33:55;;;;;;;11.32;5.05;;;;;;;20.45;63.78;100331.44;5032841;28;20530;-70
2022/08/09 04:36:27;;;;;;;10.57;4.72;;;;;;;20.47;63.92;100324.44;5032486;28;20495;-70
2022/08/09 04:38:54;;;;;;;8.70;5.72;;;;;;;20.49;64.50;100327.91;5031915;28;20528;-70
2022/08/09 04:41:20;;;;;;;11.50;6.28;;;;;;;20.25;65.46;100320.16;5032609;28;20103;-70
2022/08/09 04:43:46;;;;;;;14.20;4.45;;;;;;;20.30;65.01;100315.78;5032795;28;20092;-70
2022/08/09 04:46:11;;;;;;;10.93;5.25;;;;;;;20.42;64.53;100331.44;5032562;28;20478;-70
2022/08/09 04:48:37;;;;;;;10.10;5.40;;;;;;;20.49;64.40;100322.66;5032511;28;20034;-70
2022/08/09 04:51:02;;;;;;;9.82;4.53;;;;;;;20.56;63.64;100323.50;5032913;28;20045;-70
2022/08/09 04:53:28;;;;;;;12.70;4.78;;;;;;;20.65;62.83;100319.94;5032563;28;20054;-70
2022/08/09 04:55:53;;;;;;;9.45;4.30;;;;;;;20.65;62.58;100306.84;5032247;28;20117;-70
2022/08/09 04:58:19;;;;;;;11.13;4.63;;;;;;;20.83;62.49;100311.94;5032635;28;20041;-70
2022/08/09 05:00:45;;;;;;;10.90;4.47;;;;;;;20.95;61.26;100305.75;5032524;28;20462;-70
2022/08/09 05:03:11;;;;;;;13.52;4.80;;;;;;;20.77;60.72;100258.66;5032243;28;20052;-70
2022/08/09 05:05:37;;;;;;;18.15;4.75;;;;;;;21.11;60.58;100316.97;5032389;28;20037;-70
2022/08/09 05:08:03;;;;;;;8.45;4.35;;;;;;;21.19;60.36;100311.66;5032085;28;20030;-70
2022/08/09 05:10:28;;;;;;;6.60;4.40;;;;;;;21.34;60.83;100313.25;5032286;28;20061;-70
2022/08/09 05:12:53;;;;;;;7.22;4.45;;;;;;;21.17;60.94;100280.16;5032167;28;20411;-70
2022/08/09 05:15:19;;;;;;;10.63;4.78;;;;;;;21.42;60.29;100306.19;5032186;28;20038;-70
2022/08/09 05:17:46;;;;;;;7.40;4.38;;;;;;;21.42;60.57;100310.53;5031923;28;20120;-70
2022/08/09 05:20:11;;;;;;;8.57;4.80;;;;;;;21.50;60.88;100303.47;5031799;28;20160;-70
2022/08/09 05:22:37;;;;;;;10.20;4.72;;;;;;;21.54;61.65;100305.16;4980426;28;20527;-70
2022/08/09 05:25:04;;;;;;;8.93;4.65;;;;;;;21.69;61.48;100300.66;5031759;28;20052;-70
2022/08/09 05:27:30;;;;;;;12.07;4.72;;;;;;;21.43;61.04;100250.16;5031842;28;20029;-69
2022/08/09 05:29:55;;;;;;;9.68;5.35;;;;;;;21.96;60.78;100299.47;5031737;28;20040;-69
2022/08/09 05:32:21;;;;;;;17.13;5.05;;;;;;;22.01;60.72;100300.28;5025006;28;20133;-70
2022/08/09 05:34:46;;;;;;;14.65;5.05;;;;;;;21.79;60.43;100248.00;5014034;28;20186;-70
2022/08/09 05:37:12;;;;;;;10.82;4.70;;;;;;;22.21;60.74;100305.25;5031649;28;20025;-70
2022/08/09 05:39:39;;;;;;;13.10;4.50;;;;;;;22.33;59.96;100306.84;5031661;28;20124;-70
2022/08/09 05:42:04;;;;;;;13.25;4.50;;;;;;;22.11;59.57;100254.56;5032110;28;20033;-70
2022/08/09 05:44:30;;;;;;;11.85;4.90;;;;;;;22.41;59.12;100259.44;5031546;28;20116;-70
2022/08/09 05:46:56;;;;;;;11.07;4.03;;;;;;;22.82;58.47;100314.91;5031546;28;20488;-70
2022/08/09 05:49:21;;;;;;;10.55;4.05;;;;;;;22.61;57.17;100238.91;5030538;28;20038;-70
2022/08/09 05:51:46;;;;;;;10.80;4.55;;;;;;;23.15;56.64;100312.59;5031570;28;20077;-70
2022/08/09 05:54:12;;;;;;;8.98;3.97;;;;;;;23.22;56.25;100314.28;5031506;28;20107;-70
2022/08/09 05:56:37;;;;;;;10.43;4.45;;;;;;;23.31;56.06;100305.34;5013524;28;20040;-70
2022/08/09 05:59:03;;;;;;;7.45;4.03;;;;;;;23.52;56.01;100306.69;5031417;28;20124;-70
2022/08/09 06:01:29;;;;;;;9.00;4.10;;;;;;;23.67;55.17;100309.03;5031636;28;20033;-70
2022/08/09 06:03:56;;;;;;;10.35;4.22;;;;;;;23.83;54.24;100306.94;5031380;28;20488;-70
2022/08/09 06:06:22;;;;;;;8.43;4.28;;;;;;;23.96;54.97;100318.13;5031275;28;20109;-70
2022/08/09 06:08:48;;;;;;;8.20;3.50;;;;;;;24.06;54.11;100310.91;5013370;28;20056;-69
2022/08/09 06:11:14;;;;;;;10.10;3.70;;;;;;;24.17;53.90;100326.50;5031635;28;20034;-69
2022/08/09 06:13:40;;;;;;;13.40;3.85;;;;;;;24.32;53.95;100317.38;5031102;28;20041;-69
2022/08/09 06:16:06;;;;;;;9.05;3.70;;;;;;;24.20;53.34;100278.94;5030881;28;20033;-69
2022/08/09 06:18:33;;;;;;;8.80;3.72;;;;;;;24.60;53.58;100314.97;5031194;28;20044;-69
2022/08/09 06:20:58;;;;;;;7.13;3.63;;;;;;;24.42;51.93;100271.41;5012991;28;20041;-70
2022/08/09 06:23:25;;;;;;;8.07;3.60;;;;;;;24.54;52.35;100275.53;5030894;28;20033;-70
2022/08/09 06:25:51;;;;;;;7.68;3.55;;;;;;;24.89;50.90;100308.16;5030895;28;20376;-70
2022/08/09 06:28:17;;;;;;;7.22;3.75;;;;;;;24.98;51.98;100301.75;5030504;28;20033;-69
2022/08/09 06:30:42;;;;;;;8.43;3.53;;;;;;;25.02;50.72;100300.75;5030669;28;20037;-69
2022/08/09 06:33:08;;;;;;;7.88;3.60;;;;;;;24.83;52.29;100253.69;4979648;28;20503;-69
2022/08/09 06:35:34;;;;;;;6.32;3.58;;;;;;;25.03;49.33;100266.41;5027146;28;20025;-69
2022/08/09 06:37:59;;;;;;;8.68;3.10;;;;;;;25.06;49.91;100251.38;5026590;28;20515;-67
2022/08/09 06:40:25;;;;;;;5.85;3.28;;;;;;;25.46;47.53;100282.00;5029417;28;20040;-69
2022/08/09 06:42:51;;;;;;;5.15;3.03;;;;;;;25.53;46.93;100278.28;5029667;28;20199;-67
2022/08/09 06:45:17;;;;;;;6.28;3.28;;;;;;;25.64;47.10;100278.84;5028365;28;20198;-67
2022/08/09 06:47:42;;;;;;;7.78;3.28;;;;;;;25.88;45.76;100286.13;5029566;28;20098;-69
2022/08/09 06:50:08;;;;;;;6.18;3.55;;;;;;;26.03;44.37;100298.88;5030507;28;20038;-69
2022/08/09 06:52:34;;;;;;;7.50;3.38;;;;;;;26.08;45.19;100288.19;5030104;28;20045;-69
2022/08/09 06:54:59;;;;;;;6.30;2.90;;;;;;;26.12;44.42;100284.53;5030553;28;20050;-70
2022/08/09 06:57:25;;;;;;;7.88;3.03;;;;;;;26.14;45.51;100240.41;5030662;28;20538;-69
2022/08/09 06:59:51;;;;;;;5.57;2.80;;;;;;;26.47;42.25;100279.94;5030323;28;20045;-69
2022/08/09 07:02:16;;;;;;;7.43;3.00;;;;;;;26.62;42.56;100290.03;5033817;28;20075;-69
2022/08/09 07:04:42;;;;;;;5.28;2.97;;;;;;;26.71;41.70;100277.41;5034279;28;20042;-69
2022/08/09 07:07:07;;;;;;;5.65;3.10;;;;;;;26.86;42.06;100281.34;5034235;28;20060;-69
2022/08/09 07:09:32;;;;;;;4.95;2.80;;;;;;;26.84;41.11;100288.47;5034509;28;20096;-69
2022/08/09 07:11:58;;;;;;;5.35;2.75;;;;;;;26.96;41.38;100296.00;5034865;28;20036;-69
2022/08/09 07:14:23;;;;;;;6.10;2.80;;;;;;;26.94;40.28;100288.13;5034286;28;20037;-69
2022/08/09 07:16:49;;;;;;;6.40;2.67;;;;;;;27.03;43.23;100294.00;5034146;28;20029;-69
2022/08/09 07:19:15;;;;;;;8.07;3.00;;;;;;;27.13;42.67;100283.06;5034338;28;20034;-69
2022/08/09 07:21:42;;;;;;;7.90;3.10;;;;;;;27.20;39.89;100264.28;5033949;28;20037;-69
2022/08/09 07:24:08;;;;;;;6.57;3.40;;;;;;;27.45;40.74;100290.81;5034206;28;20037;-69
2022/08/09 07:26:33;;;;;;;6.28;2.88;;;;;;;27.39;40.22;100280.38;5034241;28;20514;-69
2022/08/09 07:28:59;;;;;;;7.78;3.20;;;;;;;27.36;39.10;100248.69;5034121;28;20506;-69
2022/08/09 07:31:24;;;;;;;6.05;2.65;;;;;;;27.95;39.41;100299.59;5034236;28;20038;-69
2022/08/09 07:33:50;;;;;;;7.10;3.22;;;;;;;28.11;37.66;100305.22;5033706;28;20057;-69
2022/08/09 07:36:16;;;;;;;7.38;3.10;;;;;;;28.08;35.64;100253.97;5033713;28;20091;-69
2022/08/09 07:38:42;;;;;;;10.27;3.10;;;;;;;28.45;37.09;100298.56;5033060;28;20427;-69
2022/08/09 07:41:08;;;;;;;10.90;3.20;;;;;;;28.67;36.93;100287.94;5033818;28;20037;-69
2022/08/09 07:43:34;;;;;;;8.00;3.40;;;;;;;28.78;34.93;100284.84;5033893;28;20687;-69
2022/08/09 07:46:00;;;;;;;10.52;3.40;;;;;;;28.88;36.52;100275.56;5033829;28;20041;-69
2022/08/09 07:48:25;;;;;;;9.88;3.42;;;;;;;28.96;35.53;100293.84;5033607;28;20037;-69
2022/08/09 07:50:51;;;;;;;11.90;3.70;;;;;;;29.00;36.80;100274.19;5027558;28;20044;-69
2022/08/09 07:53:16;;;;;;;21.13;4.03;;;;;;;29.07;35.39;100293.38;5033664;28;20057;-69
2022/08/09 07:55:43;;;;;;;8.18;2.97;;;;;;;29.17;34.25;100274.31;5033613;28;20033;-69
2022/08/09 07:58:08;;;;;;;7.05;3.33;;;;;;;29.31;34.70;100279.06;5033500;28;20033;-69
2022/08/09 08:00:34;;;;;;;19.00;4.55;;;;;;;29.33;33.70;100285.16;5033277;28;20549;-69
2022/08/09 08:03:01;;;;;;;15.60;4.00;;;;;;;29.46;33.64;100285.47;5033377;28;20041;-70
2022/08/09 08:05:27;;;;;;;10.52;3.97;;;;;;;29.63;36.10;100273.22;5033432;28;20138;-69
2022/08/09 08:07:53;;;;;;;9.93;3.35;;;;;;;29.57;33.56;100274.34;5033480;28;20049;-69
2022/08/09 08:10:20;;;;;;;10.20;3.17;;;;;;;29.51;36.30;100264.00;5033348;28;20479;-69
2022/08/09 08:12:45;;;;;;;22.48;5.18;;;;;;;29.73;34.77;100274.50;5032482;28;20029;-69
2022/08/09 08:15:13;;;;;;;9.15;4.10;;;;;;;29.86;32.82;100270.34;5033294;28;20100;-69
2022/08/09 08:17:39;;;;;;;12.27;3.63;;;;;;;30.04;32.34;100262.44;5033122;28;20393;-69
2022/08/09 08:20:05;;;;;;;8.88;3.13;;;;;;;30.22;32.61;100262.50;5032985;28;20044;-69
2022/08/09 08:22:30;;;;;;;7.90;3.38;;;;;;;30.23;34.44;100261.56;5033215;28;20033;-69
2022/08/09 08:24:56;;;;;;;13.93;3.50;;;;;;;30.26;33.60;100258.78;5033335;28;20064;-69
2022/08/09 08:27:23;;;;;;;11.70;3.95;;;;;;;30.36;33.86;100256.50;5032949;28;20045;-69
2022/08/09 08:29:49;;;;;;;10.32;3.85;;;;;;;30.35;32.49;100231.69;5033040;28;20041;-69
2022/08/09 08:32:15;;;;;;;13.25;3.78;;;;;;;30.47;33.46;100232.88;5032828;28;20033;-69
2022/08/09 08:34:40;;;;;;;13.88;3.78;;;;;;;30.67;34.71;100247.88;5032851;28;20056;-69
2022/08/09 08:37:05;;;;;;;7.35;3.28;;;;;;;30.75;32.15;100253.66;4997543;28;20037;-69
2022/08/09 08:39:32;;;;;;;23.23;4.50;;;;;;;30.94;32.16;100248.28;5032830;28;20044;-69
2022/08/09 08:41:57;;;;;;;8.32;2.85;;;;;;;31.15;32.73;100256.09;5032741;28;20041;-70
2022/08/09 08:44:26;;;;;;;8.90;2.78;;;;;;;31.25;34.08;100253.81;5032749;28;20152;-69
2022/08/09 08:46:53;;;;;;;11.07;2.55;;;;;;;31.39;30.36;100251.28;5032492;28;20104;-69
2022/08/09 08:49:20;;;;;;;12.65;3.30;;;;;;;31.33;29.45;100232.94;5032274;28;20030;-69
2022/08/09 08:51:46;;;;;;;8.27;2.50;;;;;;;31.50;27.42;100257.84;5032546;28;20096;-69
2022/08/09 08:54:13;;;;;;;8.93;1.98;;;;;;;31.61;27.35;100263.47;5032321;28;20459;-69
2022/08/09 08:56:39;;;;;;;6.43;2.08;;;;;;;31.40;29.51;100210.31;5032424;28;20112;-69
2022/08/09 08:59:07;;;;;;;5.75;2.20;;;;;;;31.66;27.89;100249.91;5032335;28;20047;-69
2022/08/09 09:01:36;;;;;;;12.68;3.38;;;;;;;31.74;27.95;100243.19;5032197;28;20034;-69
2022/08/09 09:04:03;;;;;;;9.20;2.63;;;;;;;31.89;29.43;100252.16;5032213;28;20057;-69
2022/08/09 09:06:31;;;;;;;9.55;2.80;;;;;;;31.93;27.79;100251.03;5032020;28;20104;-70
2022/08/09 09:08:57;;;;;;;21.85;4.35;;;;;;;32.09;28.32;100245.69;5031906;28;20052;-69
2022/08/09 09:11:24;;;;;;;13.07;3.13;;;;;;;32.07;28.03;100236.91;5032357;28;20041;-69
2022/08/09 09:13:54;;;;;;;18.77;3.85;;;;;;;32.16;27.99;100237.31;5032075;28;20415;-69
2022/08/09 09:16:20;;;;;;;14.85;3.78;;;;;;;32.35;27.10;100227.34;5031944;28;20083;-70
2022/08/09 09:18:52;;;;;;;25.33;5.75;;;;;;;32.20;27.49;100202.38;5032240;28;20033;-70
2022/08/09 09:21:17;;;;;;;11.75;2.97;;;;;;;32.55;27.17;100230.63;5031805;28;20065;-69
2022/08/09 09:23:44;;;;;;;15.05;3.42;;;;;;;32.40;25.87;100203.88;5031655;28;20530;-69
2022/08/09 09:26:14;;;;;;;6.18;2.00;;;;;;;32.71;25.51;100230.59;5031788;28;20045;-69
2022/08/09 09:28:46;;;;;;;15.32;3.13;;;;;;;32.79;25.18;100224.81;5032070;28;20042;-70
2022/08/09 09:31:16;;;;;;;9.57;2.13;;;;;;;32.87;26.15;100230.56;5031875;28;20041;-69
2022/08/09 09:33:42;;;;;;;8.95;2.20;;;;;;;33.01;26.08;100227.91;5031795;28;20117;-69
2022/08/09 09:36:10;;;;;;;11.60;2.75;;;;;;;32.96;24.10;100195.25;5031579;28;20037;-70
2022/08/09 09:38:46;;;;;;;27.50;3.78;;;;;;;33.25;24.62;100234.50;5031491;28;20042;-69
2022/08/09 09:41:27;;;;;;;4.88;2.03;;;;;;;33.32;24.29;100218.03;5028070;28;20047;-69
2022/08/09 09:43:55;;;;;;;6.05;1.88;;;;;;;33.44;23.97;100216.38;5031461;28;20498;-69
2022/08/09 09:46:29;;;;;;;5.15;2.30;;;;;;;33.58;23.98;100195.91;5031504;28;20087;-69
2022/08/09 09:49:01;;;;;;;10.02;2.95;;;;;;;33.70;24.01;100217.41;5031495;28;20038;-68
2022/08/09 09:51:30;;;;;;;5.75;1.88;;;;;;;33.80;23.41;100222.19;5031680;28;20042;-69
2022/08/09 09:54:10;;;;;;;8.40;2.10;;;;;;;33.86;22.86;100206.59;5031247;28;20111;-69
2022/08/09 09:56:39;;;;;;;4.07;1.80;;;;;;;33.97;24.39;100208.56;5031152;28;20056;-69
2022/08/09 09:59:09;;;;;;;5.28;2.00;;;;;;;34.09;24.83;100208.72;5031419;28;20041;-69
2022/08/09 10:01:35;;;;;;;6.78;2.10;;;;;;;33.96;25.17;100214.88;5031130;28;20052;-68
2022/08/09 10:04:01;;;;;;;4.75;1.92;;;;;;;33.81;24.33;100214.03;5031277;28;20503;-69
2022/08/09 10:06:28;;;;;;;7.03;2.30;;;;;;;33.75;24.95;100213.56;5030851;28;20029;-69
2022/08/09 10:09:04;;;;;;;15.38;4.10;;;;;;;33.86;24.04;100214.63;5031179;28;20099;-69
2022/08/09 10:11:31;;;;;;;23.77;4.65;;;;;;;34.05;23.08;100205.38;5030988;28;20488;-68
2022/08/09 10:13:57;;;;;;;15.77;3.05;;;;;;;33.99;22.85;100161.09;5030870;28;20037;-69
2022/08/09 10:16:27;;;;;;;8.68;2.10;;;;;;;34.40;23.21;100185.28;5030805;28;20034;-68
2022/08/09 10:18:54;;;;;;;9.73;2.33;;;;;;;34.61;22.70;100197.19;5030524;28;20052;-69
2022/08/09 10:21:21;;;;;;;7.53;1.98;;;;;;;34.82;21.36;100184.13;5031046;28;20041;-69
2022/08/09 10:23:48;;;;;;;9.48;2.20;;;;;;;34.95;22.44;100196.72;5030836;28;20037;-69
2022/08/09 10:26:14;;;;;;;7.93;2.00;;;;;;;34.75;22.48;100147.13;5030861;28;20041;-69
2022/08/09 10:28:42;;;;;;;17.52;4.30;;;;;;;34.99;24.40;100160.66;5030950;28;20033;-68
2022/08/09 10:31:09;;;;;;;18.38;4.38;;;;;;;35.24;21.89;100202.72;5030729;28;20116;-68
2022/08/09 10:33:35;;;;;;;9.48;2.78;;;;;;;35.34;21.60;100177.88;5030460;28;20045;-68
2022/08/09 10:36:03;;;;;;;2.97;1.85;;;;;;;35.52;21.36;100187.34;5012461;28;20030;-69
2022/08/09 10:38:30;;;;;;;9.13;2.15;;;;;;;35.70;20.87;100186.94;5013076;28;20041;-69
2022/08/09 10:40:56;;;;;;;21.98;4.50;;;;;;;35.81;20.19;100183.47;5029756;28;20037;-68
2022/08/09 10:43:22;;;;;;;5.93;2.20;;;;;;;35.91;21.90;100189.91;5030401;28;20044;-68
2022/08/09 10:45:48;;;;;;;5.38;1.95;;;;;;;35.95;20.31;100186.91;5030522;28;20033;-68
2022/08/09 10:48:26;;;;;;;5.82;1.60;;;;;;;36.12;21.29;100190.13;5029919;28;20029;-69
2022/08/09 10:51:08;;;;;;;5.25;1.73;;;;;;;35.92;21.12;100146.81;5030653;28;20045;-68
2022/08/09 10:53:36;;;;;;;6.50;2.00;;;;;;;35.91;22.25;100185.38;5030248;28;20095;-68
2022/08/09 10:56:23;;;;;;;8.43;1.90;;;;;;;35.95;20.87;100178.84;5030212;28;20033;-69
2022/08/09 10:58:50;;;;;;;4.65;2.00;;;;;;;35.74;21.26;100167.81;5030351;28;20034;-69
2022/08/09 11:01:31;;;;;;;15.93;2.38;;;;;;;35.81;21.93;100183.47;5030294;28;20045;-70
2022/08/09 11:04:08;;;;;;;6.85;2.20;;;;;;;36.00;21.25;100178.47;5026779;28;20032;-69
2022/08/09 11:06:39;;;;;;;6.18;2.42;;;;;;;35.91;22.05;100125.44;5018334;28;20115;-68
2022/08/09 11:09:06;;;;;;;14.50;3.42;;;;;;;36.15;20.38;100168.38;5026847;28;20048;-69
2022/08/09 11:11:56;;;;;;;15.25;3.50;;;;;;;36.27;21.54;100166.63;5030087;28;20045;-69
2022/08/09 11:14:36;;;;;;;8.68;2.25;;;;;;;36.54;22.21;100165.47;5029943;28;20036;-68
2022/08/09 11:17:26;;;;;;;5.15;2.45;;;;;;;36.66;21.20;100171.75;5030002;28;20041;-69
2022/08/09 11:19:57;;;;;;;6.13;2.00;;;;;;;36.09;21.98;100176.91;5030041;28;20132;-69
2022/08/09 11:22:42;;;;;;;10.18;2.30;;;;;;;35.44;21.13;100179.84;5030007;28;20079;-69
2022/08/09 11:25:14;;;;;;;14.30;2.85;;;;;;;35.46;22.72;100126.03;5029678;28;20037;-69